createdAt,value
2019-02-16T00:00:09.379Z,-437.39
2019-02-16T00:01:09.605Z,-438.00
2019-02-16T00:02:09.831Z,-438.05
2019-02-16T00:03:10.104Z,-437.28
2019-02-16T00:04:10.293Z,-437.31
2019-02-16T00:05:11.383Z,-438.86
2019-02-16T00:06:10.744Z,-440.52
2019-02-16T00:07:11.072Z,-437.13
2019-02-16T00:08:12.384Z,-438.08
2019-02-16T00:09:11.876Z,-437.56
2019-02-16T00:10:12.378Z,-438.59
2019-02-16T00:11:11.880Z,-438.56
2019-02-16T00:12:12.878Z,-439.70
2019-02-16T00:13:12.383Z,-439.32
2019-02-16T00:14:12.590Z,-439.11
2019-02-16T00:15:12.877Z,-434.13
2019-02-16T00:16:13.026Z,-437.63
2019-02-16T00:17:13.281Z,-437.06
2019-02-16T00:18:13.880Z,-437.40
2019-02-16T00:19:13.759Z,-436.85
2019-02-16T00:20:13.989Z,-436.43
2019-02-16T00:21:14.378Z,-438.23
2019-02-16T00:22:14.438Z,-440.85
2019-02-16T00:23:14.733Z,-440.61
2019-02-16T00:24:14.908Z,-438.38
2019-02-16T00:25:15.137Z,-436.79
2019-02-16T00:26:15.379Z,-440.76
2019-02-16T00:27:15.597Z,-437.04
2019-02-16T00:28:15.847Z,-439.16
2019-02-16T00:29:16.056Z,-436.36
2019-02-16T00:30:16.303Z,-438.26
2019-02-16T00:31:16.561Z,-438.95
2019-02-16T00:32:16.887Z,-438.96
2019-02-16T00:33:17.006Z,-441.05
2019-02-16T00:34:17.224Z,-438.45
2019-02-16T00:35:17.454Z,-438.83
2019-02-16T00:36:17.702Z,-436.99
2019-02-16T00:37:17.919Z,-439.16
2019-02-16T00:38:18.173Z,-440.57
2019-02-16T00:39:18.365Z,-439.97
2019-02-16T00:40:18.673Z,-438.34
2019-02-16T00:41:18.867Z,-439.58
2019-02-16T00:42:19.078Z,-438.21
2019-02-16T00:43:19.338Z,-439.37
2019-02-16T00:44:19.526Z,-441.33
2019-02-16T00:45:19.762Z,-440.35
2019-02-16T00:46:20.018Z,-440.68
2019-02-16T00:47:20.231Z,-438.66
2019-02-16T00:48:20.560Z,-439.02
2019-02-16T00:49:20.662Z,-438.19
2019-02-16T00:50:20.910Z,-438.54
2019-02-16T00:51:21.171Z,-440.35
2019-02-16T00:52:21.389Z,-439.02
2019-02-16T00:53:21.641Z,-440.26
2019-02-16T00:54:21.844Z,-437.93
2019-02-16T00:55:22.054Z,-437.51
2019-02-16T00:56:22.345Z,-440.28
2019-02-16T00:57:22.880Z,-438.60
2019-02-16T00:58:22.780Z,-441.09
2019-02-16T00:59:22.982Z,-439.40
2019-02-16T01:00:23.207Z,-440.17
2019-02-16T01:01:23.441Z,-438.85
2019-02-16T01:02:23.675Z,-440.82
2019-02-16T01:03:23.956Z,-442.73
2019-02-16T01:04:24.181Z,-441.92
2019-02-16T01:05:24.481Z,-438.47
2019-02-16T01:06:24.634Z,-438.92
2019-02-16T01:07:24.827Z,-441.35
2019-02-16T01:08:25.106Z,-439.16
2019-02-16T01:09:25.287Z,-441.27
2019-02-16T01:10:25.532Z,-439.08
2019-02-16T01:11:25.785Z,-443.27
2019-02-16T01:12:26.005Z,-443.38
2019-02-16T01:13:26.309Z,-440.14
2019-02-16T01:14:26.451Z,-440.33
2019-02-16T01:15:26.687Z,-440.85
2019-02-16T01:16:26.940Z,-441.51
2019-02-16T01:17:27.128Z,-441.99
2019-02-16T01:18:27.377Z,-439.35
2019-02-16T01:19:27.607Z,-416.41
2019-02-16T01:20:27.847Z,-417.67
2019-02-16T01:21:28.229Z,-417.27
2019-02-16T01:22:28.299Z,-417.55
2019-02-16T01:23:28.554Z,-415.77
2019-02-16T01:24:29.018Z,-419.99
2019-02-16T01:25:28.998Z,-417.77
2019-02-16T01:26:29.245Z,-417.17
2019-02-16T01:27:29.458Z,-416.61
2019-02-16T01:28:29.706Z,-416.65
2019-02-16T01:29:29.959Z,-419.35
2019-02-16T01:30:30.132Z,-419.12
2019-02-16T01:31:30.382Z,-418.43
2019-02-16T01:32:30.595Z,-416.08
2019-02-16T01:33:30.843Z,-417.78
2019-02-16T01:34:31.058Z,-417.36
2019-02-16T01:35:31.274Z,-418.83
2019-02-16T01:36:31.525Z,-418.53
2019-02-16T01:37:31.806Z,-418.91
2019-02-16T01:38:31.961Z,-416.56
2019-02-16T01:39:32.208Z,-418.96
2019-02-16T01:40:32.410Z,-419.75
2019-02-16T01:41:32.676Z,-418.42
2019-02-16T01:42:32.903Z,-416.45
2019-02-16T01:43:33.148Z,-417.35
2019-02-16T01:44:33.380Z,-419.13
2019-02-16T01:45:33.638Z,-419.35
2019-02-16T01:46:33.894Z,-421.07
2019-02-16T01:47:34.058Z,-415.94
2019-02-16T01:48:34.298Z,-418.53
2019-02-16T01:49:34.537Z,-417.52
2019-02-16T01:50:34.751Z,-417.80
2019-02-16T01:51:35.000Z,-420.06
2019-02-16T01:52:35.196Z,-419.17
2019-02-16T01:53:35.451Z,-419.21
2019-02-16T01:54:35.804Z,-416.23
2019-02-16T01:55:35.896Z,-415.71
2019-02-16T01:56:36.129Z,-417.98
2019-02-16T01:57:36.352Z,-416.42
2019-02-16T01:58:36.604Z,-416.69
2019-02-16T01:59:36.845Z,-418.44
2019-02-16T02:00:37.057Z,-418.44
2019-02-16T02:01:37.312Z,-418.58
2019-02-16T02:02:37.584Z,-418.39
2019-02-16T02:03:37.758Z,-418.43
2019-02-16T02:04:38.002Z,-418.60
2019-02-16T02:05:38.201Z,-416.11
2019-02-16T02:06:38.453Z,-418.92
2019-02-16T02:07:38.659Z,-415.79
2019-02-16T02:08:38.874Z,-418.54
2019-02-16T02:09:39.144Z,-418.06
2019-02-16T02:10:39.402Z,-416.53
2019-02-16T02:11:39.582Z,-417.84
2019-02-16T02:12:39.799Z,-420.30
2019-02-16T02:13:40.048Z,-419.56
2019-02-16T02:14:40.263Z,-421.19
2019-02-16T02:15:40.490Z,-416.60
2019-02-16T02:16:40.715Z,-417.38
2019-02-16T02:17:40.946Z,-418.27
2019-02-16T02:18:41.247Z,-418.11
2019-02-16T02:19:41.422Z,-421.00
2019-02-16T02:20:41.634Z,-420.18
2019-02-16T02:21:41.878Z,-420.99
2019-02-16T02:22:42.126Z,-419.66
2019-02-16T02:23:42.356Z,-420.57
2019-02-16T02:24:42.618Z,-421.22
2019-02-16T02:25:42.815Z,-419.76
2019-02-16T02:26:43.044Z,-423.48
2019-02-16T02:27:43.394Z,-418.86
2019-02-16T02:28:43.534Z,-421.05
2019-02-16T02:29:43.768Z,-418.38
2019-02-16T02:30:43.966Z,-420.64
2019-02-16T02:31:44.202Z,-419.26
2019-02-16T02:32:44.463Z,-415.77
2019-02-16T02:33:44.714Z,-417.52
2019-02-16T02:34:45.389Z,-420.29
2019-02-16T02:35:45.229Z,-417.45
2019-02-16T02:36:45.361Z,-416.98
2019-02-16T02:37:45.621Z,-417.28
2019-02-16T02:38:45.846Z,-419.63
2019-02-16T02:39:46.111Z,-420.00
2019-02-16T02:40:46.307Z,-419.19
2019-02-16T02:41:46.531Z,-416.78
2019-02-16T02:42:46.782Z,-417.33
2019-02-16T02:43:47.126Z,-419.90
2019-02-16T02:44:47.252Z,-419.12
2019-02-16T02:45:47.469Z,-417.73
2019-02-16T02:46:47.692Z,-419.68
2019-02-16T02:47:47.935Z,-416.47
2019-02-16T02:48:48.154Z,-419.04
2019-02-16T02:49:48.441Z,-417.38
2019-02-16T02:50:48.639Z,-418.46
2019-02-16T02:51:52.319Z,-419.53
2019-02-16T02:52:49.087Z,-421.76
2019-02-16T02:53:49.294Z,-419.00
2019-02-16T02:54:49.567Z,-420.26
2019-02-16T02:55:49.757Z,-418.97
2019-02-16T02:56:49.997Z,-419.55
2019-02-16T02:57:50.252Z,-420.97
2019-02-16T02:58:50.470Z,-420.93
2019-02-16T02:59:50.757Z,-419.98
2019-02-16T03:00:50.970Z,-418.18
2019-02-16T03:01:51.160Z,-418.38
2019-02-16T03:02:51.636Z,-419.66
2019-02-16T03:03:51.618Z,-420.45
2019-02-16T03:04:51.877Z,-419.26
2019-02-16T03:05:52.061Z,-418.83
2019-02-16T03:06:52.308Z,-417.02
2019-02-16T03:07:52.574Z,-419.14
2019-02-16T03:08:52.891Z,-418.86
2019-02-16T03:09:53.009Z,-441.87
2019-02-16T03:10:53.236Z,-440.70
2019-02-16T03:11:53.476Z,-443.09
2019-02-16T03:12:53.718Z,-443.81
2019-02-16T03:13:54.090Z,-442.87
2019-02-16T03:14:54.190Z,-445.66
2019-02-16T03:15:54.376Z,-444.37
2019-02-16T03:16:54.759Z,-441.97
2019-02-16T03:17:54.875Z,-445.68
2019-02-16T03:18:55.095Z,-444.08
2019-02-16T03:19:55.351Z,-444.68
2019-02-16T03:20:55.536Z,-443.62
2019-02-16T03:22:02.526Z,-446.61
2019-02-16T03:22:57.037Z,-444.30
2019-02-16T03:23:56.259Z,-445.02
2019-02-16T03:24:56.555Z,-445.55
2019-02-16T03:25:56.703Z,-444.78
2019-02-16T03:26:56.919Z,-444.26
2019-02-16T03:27:57.187Z,-443.93
2019-02-16T03:28:57.397Z,-446.46
2019-02-16T03:29:57.640Z,-445.19
2019-02-16T03:30:57.877Z,-445.45
2019-02-16T03:31:58.115Z,-444.47
2019-02-16T03:32:58.417Z,-444.04
2019-02-16T03:33:58.554Z,-442.25
2019-02-16T03:34:58.791Z,-446.49
2019-02-16T03:35:59.029Z,-445.99
2019-02-16T03:36:59.246Z,-443.46
2019-02-16T03:37:59.496Z,-443.75
2019-02-16T03:38:59.698Z,-444.96
2019-02-16T03:39:59.980Z,-442.04
2019-02-16T03:41:00.233Z,-443.42
2019-02-16T03:42:00.464Z,-445.11
2019-02-16T03:43:00.654Z,-444.86
2019-02-16T03:44:00.850Z,-444.16
2019-02-16T03:45:01.119Z,-443.30
2019-02-16T03:46:01.343Z,-445.05
2019-02-16T03:47:01.553Z,-445.65
2019-02-16T03:48:01.801Z,-446.12
2019-02-16T03:49:02.024Z,-445.94
2019-02-16T03:50:02.551Z,-445.74
2019-02-16T03:51:02.498Z,-447.38
2019-02-16T03:52:12.687Z,-442.32
2019-02-16T03:53:03.954Z,-442.49
2019-02-16T03:54:03.161Z,-445.05
2019-02-16T03:55:03.394Z,-442.09
2019-02-16T03:56:03.644Z,-444.71
2019-02-16T03:57:03.865Z,-444.94
2019-02-16T03:58:04.221Z,-444.54
2019-02-16T03:59:04.316Z,-444.76
2019-02-16T04:00:04.550Z,-447.39
2019-02-16T04:01:04.794Z,-444.39
2019-02-16T04:02:05.007Z,-444.80
2019-02-16T04:03:05.255Z,-444.01
2019-02-16T04:04:05.474Z,-443.97
2019-02-16T04:05:05.719Z,-444.75
2019-02-16T04:06:05.958Z,-443.34
2019-02-16T04:07:06.140Z,-445.42
2019-02-16T04:08:06.397Z,-444.94
2019-02-16T04:09:06.609Z,-443.35
2019-02-16T04:10:06.859Z,-445.06
2019-02-16T04:11:07.093Z,-446.30
2019-02-16T04:12:07.365Z,-446.39
2019-02-16T04:13:07.546Z,-442.75
2019-02-16T04:14:07.844Z,-443.52
2019-02-16T04:15:08.014Z,-446.96
2019-02-16T04:16:08.232Z,-444.58
2019-02-16T04:17:08.424Z,-444.67
2019-02-16T04:18:08.674Z,-444.49
2019-02-16T04:19:08.903Z,-445.13
2019-02-16T04:20:09.179Z,-445.82
2019-02-16T04:21:09.380Z,-443.03
2019-02-16T04:22:09.614Z,-443.38
2019-02-16T04:23:09.896Z,-444.95
2019-02-16T04:24:10.061Z,-445.67
2019-02-16T04:25:10.301Z,-443.74
2019-02-16T04:26:10.536Z,-444.98
2019-02-16T04:27:10.742Z,-444.74
2019-02-16T04:28:10.976Z,-446.60
2019-02-16T04:29:11.187Z,-443.85
2019-02-16T04:30:11.467Z,-444.89
2019-02-16T04:31:11.820Z,-444.83
2019-02-16T04:32:11.923Z,-442.56
2019-02-16T04:33:12.140Z,-445.75
2019-02-16T04:34:12.384Z,-444.75
2019-02-16T04:35:12.938Z,-445.18
2019-02-16T04:36:12.890Z,-444.73
2019-02-16T04:37:13.099Z,-445.87
2019-02-16T04:38:13.333Z,-442.52
2019-02-16T04:39:13.653Z,-443.71
2019-02-16T04:40:13.826Z,-444.71
2019-02-16T04:41:14.284Z,-443.92
2019-02-16T04:42:14.268Z,-444.34
2019-02-16T04:43:14.494Z,-445.31
2019-02-16T04:44:14.740Z,-443.92
2019-02-16T04:45:14.947Z,-443.23
2019-02-16T04:46:15.188Z,-441.90
2019-02-16T04:47:15.468Z,-442.75
2019-02-16T04:48:15.627Z,-445.05
2019-02-16T04:49:15.897Z,-442.99
2019-02-16T04:50:16.420Z,-444.94
2019-02-16T04:51:16.335Z,-442.78
2019-02-16T04:52:16.534Z,-443.71
2019-02-16T04:53:16.778Z,-444.70
2019-02-16T04:54:17.029Z,-445.99
2019-02-16T04:55:17.275Z,-441.12
2019-02-16T04:56:17.561Z,-444.08
2019-02-16T04:57:17.719Z,-446.32
2019-02-16T04:58:17.969Z,-442.99
2019-02-16T04:59:18.213Z,-443.78
2019-02-16T05:00:18.475Z,-444.80
2019-02-16T05:01:18.681Z,-444.26
2019-02-16T05:02:18.887Z,-444.47
2019-02-16T05:03:19.129Z,-444.49
2019-02-16T05:04:19.492Z,-441.13
2019-02-16T05:05:19.581Z,-443.55
2019-02-16T05:06:19.846Z,-446.39
2019-02-16T05:07:20.041Z,-444.35
2019-02-16T05:08:20.271Z,-446.08
2019-02-16T05:09:20.522Z,-443.92
2019-02-16T05:10:20.732Z,-442.49
2019-02-16T05:11:20.983Z,-445.66
2019-02-16T05:12:21.286Z,-447.01
2019-02-16T05:13:21.398Z,-442.64
2019-02-16T05:14:21.667Z,-447.28
2019-02-16T05:15:21.885Z,-444.72
2019-02-16T05:16:22.140Z,-445.47
2019-02-16T05:17:22.350Z,-442.28
2019-02-16T05:18:22.579Z,-444.24
2019-02-16T05:19:22.814Z,-444.25
2019-02-16T05:20:23.106Z,-445.10
2019-02-16T05:21:23.287Z,-446.87
2019-02-16T05:22:23.480Z,-443.51
2019-02-16T05:23:23.743Z,-445.89
2019-02-16T05:24:23.953Z,-445.69
2019-02-16T05:25:24.163Z,-445.71
2019-02-16T05:26:24.531Z,-444.69
2019-02-16T05:27:24.640Z,-446.73
2019-02-16T05:28:24.921Z,-447.14
2019-02-16T05:29:25.102Z,-442.91
2019-02-16T05:30:25.304Z,-446.24
2019-02-16T05:31:25.579Z,-445.76
2019-02-16T05:32:25.808Z,-446.68
2019-02-16T05:33:26.027Z,-446.27
2019-02-16T05:34:26.280Z,-443.64
2019-02-16T05:35:26.489Z,-444.42
2019-02-16T05:36:26.769Z,-446.44
2019-02-16T05:37:27.010Z,-444.68
2019-02-16T05:38:27.210Z,-445.93
2019-02-16T05:39:27.457Z,-442.97
2019-02-16T05:40:27.667Z,-446.96
2019-02-16T05:41:27.899Z,-446.52
2019-02-16T05:42:28.132Z,-444.34
2019-02-16T05:43:28.392Z,-445.75
2019-02-16T05:44:28.641Z,-445.99
2019-02-16T05:45:28.970Z,-446.61
2019-02-16T05:46:29.057Z,-445.46
2019-02-16T05:47:29.327Z,-444.47
2019-02-16T05:48:29.530Z,-445.85
2019-02-16T05:49:29.778Z,-445.99
2019-02-16T05:50:29.984Z,-444.75
2019-02-16T05:51:30.224Z,-443.16
2019-02-16T05:52:30.467Z,-444.85
2019-02-16T05:53:30.827Z,-446.32
2019-02-16T05:54:30.942Z,-447.19
2019-02-16T05:55:31.160Z,-449.25
2019-02-16T05:56:31.471Z,-445.71
2019-02-16T05:57:31.659Z,-446.41
2019-02-16T05:58:31.851Z,-445.90
2019-02-16T05:59:32.115Z,-444.98
2019-02-16T06:00:32.332Z,-446.02
2019-02-16T06:01:32.601Z,-447.46
2019-02-16T06:02:32.795Z,-447.82
2019-02-16T06:03:32.991Z,-445.89
2019-02-16T06:04:33.255Z,-446.02
2019-02-16T06:05:33.485Z,-447.22
2019-02-16T06:06:33.721Z,-445.12
2019-02-16T06:07:33.980Z,-446.93
2019-02-16T06:08:34.184Z,-447.89
2019-02-16T06:09:34.502Z,-447.46
2019-02-16T06:10:34.614Z,-447.24
2019-02-16T06:11:34.851Z,-445.73
2019-02-16T06:12:35.109Z,-445.26
2019-02-16T06:13:35.325Z,-446.86
2019-02-16T06:14:35.571Z,-448.40
2019-02-16T06:15:35.771Z,-446.81
2019-02-16T06:16:36.015Z,-447.71
2019-02-16T06:17:36.308Z,-445.53
2019-02-16T06:18:36.837Z,-446.42
2019-02-16T06:19:36.738Z,-444.33
2019-02-16T06:20:36.936Z,-447.48
2019-02-16T06:21:37.173Z,-445.57
2019-02-16T06:22:37.438Z,-444.39
2019-02-16T06:23:37.659Z,-444.42
2019-02-16T06:24:37.891Z,-446.72
2019-02-16T06:25:38.120Z,-446.22
2019-02-16T06:26:38.464Z,-444.00
2019-02-16T06:27:38.589Z,-445.33
2019-02-16T06:28:38.813Z,-445.97
2019-02-16T06:29:39.044Z,-444.05
2019-02-16T06:30:39.257Z,-445.82
2019-02-16T06:31:39.476Z,-443.03
2019-02-16T06:32:39.726Z,-444.04
2019-02-16T06:33:39.965Z,-445.19
2019-02-16T06:34:40.330Z,-443.22
2019-02-16T06:35:40.401Z,-443.29
2019-02-16T06:36:40.639Z,-445.90
2019-02-16T06:37:40.872Z,-447.36
2019-02-16T06:38:41.102Z,-447.01
2019-02-16T06:39:41.332Z,-447.08
2019-02-16T06:40:41.564Z,-443.66
2019-02-16T06:41:41.795Z,-446.39
2019-02-16T06:42:42.070Z,-442.68
2019-02-16T06:43:42.235Z,-445.93
2019-02-16T06:44:42.477Z,-443.90
2019-02-16T06:45:42.729Z,-444.93
2019-02-16T06:46:42.953Z,-446.33
2019-02-16T06:47:43.203Z,-445.66
2019-02-16T06:48:43.433Z,-445.76
2019-02-16T06:49:43.626Z,-445.58
2019-02-16T06:50:43.928Z,-447.02
2019-02-16T06:51:44.139Z,-447.12
2019-02-16T06:52:44.376Z,-445.55
2019-02-16T06:53:44.581Z,-448.77
2019-02-16T06:54:44.816Z,-447.24
2019-02-16T06:55:45.047Z,-446.79
2019-02-16T06:56:45.269Z,-449.07
2019-02-16T06:57:45.498Z,-447.28
2019-02-16T06:58:45.777Z,-448.40
2019-02-16T06:59:46.078Z,-447.83
2019-02-16T07:00:46.258Z,-446.83
2019-02-16T07:01:46.469Z,-447.43
2019-02-16T07:02:46.717Z,-447.82
2019-02-16T07:03:46.957Z,-446.91
2019-02-16T07:04:47.145Z,-451.87
2019-02-16T07:05:47.404Z,-450.34
2019-02-16T07:06:47.622Z,-446.69
2019-02-16T07:07:47.981Z,-447.85
2019-02-16T07:08:48.107Z,-447.43
2019-02-16T07:09:48.292Z,-447.74
2019-02-16T07:10:48.547Z,-448.80
2019-02-16T07:11:48.766Z,-447.76
2019-02-16T07:12:49.036Z,-447.97
2019-02-16T07:13:49.231Z,-445.94
2019-02-16T07:14:49.469Z,-446.79
2019-02-16T07:15:49.760Z,-441.02
2019-02-16T07:16:49.910Z,-440.14
2019-02-16T07:17:50.157Z,-439.81
2019-02-16T07:18:50.371Z,-438.92
2019-02-16T07:19:50.608Z,-443.04
2019-02-16T07:20:50.822Z,-444.00
2019-02-16T07:21:51.034Z,-442.75
2019-02-16T07:22:51.310Z,-442.26
2019-02-16T07:23:51.554Z,-444.63
2019-02-16T07:24:51.750Z,-446.32
2019-02-16T07:25:51.986Z,-442.77
2019-02-16T07:26:52.186Z,-447.64
2019-02-16T07:27:52.445Z,-446.89
2019-02-16T07:28:52.670Z,-444.84
2019-02-16T07:29:52.911Z,-444.47
2019-02-16T07:30:53.150Z,-444.16
2019-02-16T07:31:53.415Z,-443.90
2019-02-16T07:32:53.612Z,-445.08
2019-02-16T07:33:53.826Z,-446.23
2019-02-16T07:34:54.088Z,-442.96
2019-02-16T07:35:54.314Z,-443.71
2019-02-16T07:36:54.528Z,-444.23
2019-02-16T07:37:54.770Z,-444.70
2019-02-16T07:38:54.967Z,-445.76
2019-02-16T07:39:55.263Z,-445.15
2019-02-16T07:40:55.585Z,-446.68
2019-02-16T07:41:57.236Z,-447.01
2019-02-16T07:42:55.980Z,-445.36
2019-02-16T07:43:56.110Z,-446.56
2019-02-16T07:44:56.376Z,-444.56
2019-02-16T07:45:56.620Z,-445.36
2019-02-16T07:46:56.826Z,-445.12
2019-02-16T07:47:57.056Z,-446.07
2019-02-16T07:48:57.405Z,-445.92
2019-02-16T07:49:57.530Z,-445.11
2019-02-16T07:50:57.771Z,-443.46
2019-02-16T07:51:57.992Z,-446.51
2019-02-16T07:52:58.220Z,-445.41
2019-02-16T07:53:58.424Z,-447.76
2019-02-16T07:54:58.726Z,-445.46
2019-02-16T07:55:58.929Z,-442.75
2019-02-16T07:56:59.186Z,-445.42
2019-02-16T07:57:59.361Z,-446.64
2019-02-16T07:58:59.592Z,-447.24
2019-02-16T08:00:00.234Z,-446.79
2019-02-16T08:01:00.333Z,-446.95
2019-02-16T08:02:00.543Z,-446.44
2019-02-16T08:03:00.771Z,-446.53
2019-02-16T08:04:01.021Z,-446.62
2019-02-16T08:05:01.296Z,-445.45
2019-02-16T08:06:01.447Z,-444.80
2019-02-16T08:07:01.684Z,-446.66
2019-02-16T08:08:01.918Z,-444.32
2019-02-16T08:09:02.158Z,-446.77
2019-02-16T08:10:02.546Z,-446.74
2019-02-16T08:11:02.618Z,-447.47
2019-02-16T08:12:02.815Z,-444.80
2019-02-16T08:13:03.141Z,-446.20
2019-02-16T08:14:03.428Z,-445.28
2019-02-16T08:15:03.568Z,-445.36
2019-02-16T08:16:03.774Z,-441.02
2019-02-16T08:17:03.969Z,-445.03
2019-02-16T08:18:04.211Z,-443.18
2019-02-16T08:19:04.476Z,-442.79
2019-02-16T08:20:04.724Z,-448.63
2019-02-16T08:21:04.949Z,-446.16
2019-02-16T08:22:05.246Z,-444.89
2019-02-16T08:23:05.374Z,-444.23
2019-02-16T08:24:05.642Z,-444.75
2019-02-16T08:25:05.841Z,-445.80
2019-02-16T08:26:06.074Z,-443.71
2019-02-16T08:27:06.295Z,-443.50
2019-02-16T08:28:06.515Z,-445.43
2019-02-16T08:29:06.765Z,-443.32
2019-02-16T08:30:07.297Z,-445.87
2019-02-16T08:31:07.272Z,-447.11
2019-02-16T08:32:07.421Z,-442.60
2019-02-16T08:33:07.661Z,-443.04
2019-02-16T08:34:07.917Z,-442.31
2019-02-16T08:35:08.152Z,-444.23
2019-02-16T08:36:08.383Z,-443.36
2019-02-16T08:37:08.599Z,-447.07
2019-02-16T08:38:08.877Z,-444.61
2019-02-16T08:39:09.040Z,-445.45
2019-02-16T08:40:09.297Z,-445.92
2019-02-16T08:41:09.519Z,-447.13
2019-02-16T08:42:09.750Z,-444.40
2019-02-16T08:43:09.961Z,-445.66
2019-02-16T08:44:10.194Z,-445.20
2019-02-16T08:45:10.472Z,-445.83
2019-02-16T08:46:10.739Z,-444.32
2019-02-16T08:47:10.876Z,-445.65
2019-02-16T08:48:11.118Z,-446.11
2019-02-16T08:49:11.357Z,-446.11
2019-02-16T08:50:11.606Z,-444.90
2019-02-16T08:51:11.822Z,-447.78
2019-02-16T08:52:12.047Z,-445.05
2019-02-16T08:53:12.275Z,-447.24
2019-02-16T08:54:12.594Z,-446.48
2019-02-16T08:55:12.762Z,-447.42
2019-02-16T08:56:12.987Z,-447.06
2019-02-16T08:57:13.199Z,-445.78
2019-02-16T08:58:13.430Z,-447.04
2019-02-16T08:59:13.677Z,-444.77
2019-02-16T09:00:13.921Z,-447.85
2019-02-16T09:01:14.105Z,-446.89
2019-02-16T09:02:14.346Z,-447.82
2019-02-16T09:03:14.668Z,-444.39
2019-02-16T09:04:14.826Z,-446.45
2019-02-16T09:05:15.099Z,-444.89
2019-02-16T09:06:15.251Z,-448.29
2019-02-16T09:07:15.527Z,-445.13
2019-02-16T09:08:15.752Z,-446.83
2019-02-16T09:09:15.995Z,-448.94
2019-02-16T09:10:16.235Z,-444.25
2019-02-16T09:11:16.557Z,-445.99
2019-02-16T09:12:16.720Z,-446.25
2019-02-16T09:13:16.950Z,-448.34
2019-02-16T09:14:17.199Z,-448.99
2019-02-16T09:15:17.540Z,-450.37
2019-02-16T09:16:17.642Z,-450.17
2019-02-16T09:17:17.873Z,-449.55
2019-02-16T09:18:18.118Z,-422.79
2019-02-16T09:19:18.446Z,-426.61
2019-02-16T09:20:18.858Z,-426.89
2019-02-16T09:21:18.794Z,-425.66
2019-02-16T09:22:19.027Z,-422.25
2019-02-16T09:23:19.240Z,-424.87
2019-02-16T09:24:19.499Z,-427.58
2019-02-16T09:25:19.760Z,-426.22
2019-02-16T09:26:19.941Z,-426.65
2019-02-16T09:27:20.234Z,-428.54
2019-02-16T09:28:20.368Z,-434.06
2019-02-16T09:29:20.635Z,-428.78
2019-02-16T09:30:20.889Z,-432.10
2019-02-16T09:31:21.097Z,-428.33
2019-02-16T09:32:21.350Z,-431.27
2019-02-16T09:33:21.564Z,-432.40
2019-02-16T09:34:21.813Z,-431.62
2019-02-16T09:35:22.056Z,-435.68
2019-02-16T09:36:22.288Z,-427.65
2019-02-16T09:37:22.501Z,-427.77
2019-02-16T09:38:22.714Z,-422.71
2019-02-16T09:39:23.231Z,-425.22
2019-02-16T09:40:23.220Z,-425.02
2019-02-16T09:41:23.409Z,-427.97
2019-02-16T09:42:23.648Z,-429.33
2019-02-16T09:43:23.875Z,-429.87
2019-02-16T09:44:24.250Z,-430.90
2019-02-16T09:45:24.323Z,-427.64
2019-02-16T09:46:24.558Z,-429.01
2019-02-16T09:47:24.803Z,-427.62
2019-02-16T09:48:25.009Z,-431.63
2019-02-16T09:49:25.261Z,-431.93
2019-02-16T09:50:25.534Z,-427.41
2019-02-16T09:51:25.686Z,-428.80
2019-02-16T09:52:26.059Z,-429.55
2019-02-16T09:53:26.154Z,-433.61
2019-02-16T09:54:26.410Z,-432.04
2019-02-16T09:55:26.663Z,-430.07
2019-02-16T09:56:26.829Z,-429.78
2019-02-16T09:57:27.092Z,-430.48
2019-02-16T09:58:27.305Z,-430.94
2019-02-16T09:59:27.553Z,-433.00
2019-02-16T10:00:27.853Z,-432.80
2019-02-16T10:01:27.981Z,-434.06
2019-02-16T10:02:28.213Z,-432.36
2019-02-16T10:03:28.435Z,-429.99
2019-02-16T10:04:28.692Z,-433.85
2019-02-16T10:05:28.939Z,-433.09
2019-02-16T10:06:29.137Z,-435.18
2019-02-16T10:07:30.338Z,-431.85
2019-02-16T10:08:29.614Z,-435.16
2019-02-16T10:09:29.819Z,-433.50
2019-02-16T10:10:30.095Z,-436.18
2019-02-16T10:11:30.281Z,-432.47
2019-02-16T10:12:30.528Z,-433.16
2019-02-16T10:13:30.740Z,-431.62
2019-02-16T10:14:30.975Z,-427.30
2019-02-16T10:15:31.245Z,-431.45
2019-02-16T10:16:31.453Z,-433.43
2019-02-16T10:17:31.772Z,-429.55
2019-02-16T10:18:31.871Z,-425.35
2019-02-16T10:19:32.108Z,-428.93
2019-02-16T10:20:32.374Z,-432.34
2019-02-16T10:21:32.585Z,-433.61
2019-02-16T10:22:32.831Z,-431.52
2019-02-16T10:23:33.043Z,-429.95
2019-02-16T10:24:33.277Z,-428.90
2019-02-16T10:25:33.704Z,-434.06
2019-02-16T10:26:33.747Z,-428.92
2019-02-16T10:27:33.983Z,-428.58
2019-02-16T10:28:34.199Z,-429.66
2019-02-16T10:29:34.433Z,-428.30
2019-02-16T10:30:34.861Z,-432.87
2019-02-16T10:31:34.920Z,-432.83
2019-02-16T10:32:35.159Z,-433.24
2019-02-16T10:33:35.460Z,-432.79
2019-02-16T10:34:35.589Z,-435.37
2019-02-16T10:35:36.635Z,-433.87
2019-02-16T10:36:36.069Z,-433.02
2019-02-16T10:37:36.337Z,-434.17
2019-02-16T10:38:36.537Z,-432.92
2019-02-16T10:39:36.788Z,-431.34
2019-02-16T10:40:37.044Z,-436.46
2019-02-16T10:41:37.250Z,-433.31
2019-02-16T10:42:37.465Z,-435.56
2019-02-16T10:43:37.684Z,-428.06
2019-02-16T10:44:37.914Z,-437.33
2019-02-16T10:45:38.170Z,-435.58
2019-02-16T10:46:38.378Z,-432.27
2019-02-16T10:47:38.602Z,-438.07
2019-02-16T10:48:38.835Z,-437.70
2019-02-16T10:49:39.122Z,-435.20
2019-02-16T10:50:39.339Z,-436.56
2019-02-16T10:51:39.622Z,-438.33
2019-02-16T10:52:39.779Z,-443.67
2019-02-16T10:53:39.989Z,-440.24
2019-02-16T10:54:40.255Z,-443.18
2019-02-16T10:55:40.488Z,-431.68
2019-02-16T10:56:40.701Z,-435.68
2019-02-16T10:57:40.964Z,-435.33
2019-02-16T10:58:41.281Z,-440.03
2019-02-16T10:59:41.412Z,-438.33
2019-02-16T11:00:41.669Z,-445.48
2019-02-16T11:01:41.881Z,-441.79
2019-02-16T11:02:42.125Z,-440.47
2019-02-16T11:03:42.317Z,-439.20
2019-02-16T11:04:42.550Z,-439.28
2019-02-16T11:05:42.805Z,-437.85
2019-02-16T11:06:43.153Z,-439.58
2019-02-16T11:07:43.273Z,-445.53
2019-02-16T11:08:43.475Z,-437.82
2019-02-16T11:09:43.721Z,-435.16
2019-02-16T11:10:43.967Z,-434.71
2019-02-16T11:11:45.461Z,-437.23
2019-02-16T11:12:44.433Z,-433.81
2019-02-16T11:13:44.640Z,-437.06
2019-02-16T11:14:44.899Z,-443.30
2019-02-16T11:15:45.101Z,-434.04
2019-02-16T11:16:45.364Z,-433.44
2019-02-16T11:17:45.795Z,-432.21
2019-02-16T11:18:45.778Z,-445.26
2019-02-16T11:19:46.010Z,-436.88
2019-02-16T11:20:46.243Z,-439.59
2019-02-16T11:21:46.479Z,-440.71
2019-02-16T11:22:46.785Z,-441.49
2019-02-16T11:23:46.931Z,-441.78
2019-02-16T11:24:47.158Z,-448.81
2019-02-16T11:25:47.408Z,-454.73
2019-02-16T11:26:47.633Z,-439.68
2019-02-16T11:27:47.878Z,-434.32
2019-02-16T11:28:48.083Z,-438.27
2019-02-16T11:29:48.322Z,-436.06
2019-02-16T11:30:48.637Z,-435.95
2019-02-16T11:31:48.828Z,-433.79
2019-02-16T11:32:49.040Z,-432.94
2019-02-16T11:33:49.239Z,-432.93
2019-02-16T11:34:49.470Z,-427.34
2019-02-16T11:35:49.718Z,-408.26
2019-02-16T11:36:49.929Z,-410.02
2019-02-16T11:37:50.157Z,-422.76
2019-02-16T11:38:50.392Z,-427.90
2019-02-16T11:39:50.735Z,-423.80
2019-02-16T11:40:50.873Z,-420.62
2019-02-16T11:41:51.089Z,-421.94
2019-02-16T11:42:51.311Z,-434.58
2019-02-16T11:43:51.559Z,-431.41
2019-02-16T11:44:51.792Z,-431.83
2019-02-16T11:45:52.044Z,-436.89
2019-02-16T11:46:52.261Z,-436.67
2019-02-16T11:47:52.586Z,-436.54
2019-02-16T11:48:52.725Z,-434.67
2019-02-16T11:49:52.960Z,-433.29
2019-02-16T11:50:53.210Z,-437.33
2019-02-16T11:51:53.419Z,-434.07
2019-02-16T11:52:53.674Z,-438.48
2019-02-16T11:53:53.874Z,-434.91
2019-02-16T11:54:54.128Z,-441.91
2019-02-16T11:55:54.452Z,-438.68
2019-02-16T11:56:54.589Z,-436.46
2019-02-16T11:57:54.825Z,-435.05
2019-02-16T11:58:55.075Z,-432.92
2019-02-16T11:59:55.269Z,-429.48
2019-02-16T12:00:55.539Z,-431.76
2019-02-16T12:01:55.748Z,-435.06
2019-02-16T12:02:56.056Z,-430.07
2019-02-16T12:03:56.257Z,-434.32
2019-02-16T12:04:56.440Z,-434.62
2019-02-16T12:05:56.685Z,-442.85
2019-02-16T12:06:56.908Z,-432.02
2019-02-16T12:07:57.168Z,-432.59